Houlton, ME

08:30 EDT le 30 août 2014 (GMT -0400)
Houlton International | Change Station
CLOSE
Current Station
Aéroport
Location: Houlton,
Altitude: 492 ft
Stations météo à proximité

Alt. 492 ft 46.12 °N, 67.79 °W | Updated 37 minutes ago

Clear
Ciel dégagé
55 ° F
Paraît 55 ° F
N
9
Vent Variable Vent de SO

Aujourd'hui
Haut(e) -- | Bas -- ° F
--% Risque de précip.
Hier
Haut(e) -- | Bas -- ° F
Precip. -- pouce
5:49 AM 7:13 PM
Lune montante, 21% visible
Pression 30.21 pouce
Visibilité 10.0 Miles terrestres
Nuages Ciel dégagé
Point de rosée 49 ° F
Humidité 80%
Précipitations 0.00 pouce
Profondeur de la couche neigeuse Non disponible.
UV 2 sur 12
Pollen 6.80 sur 12
Ozone Bon
PM2.5 Bon
Flu Activity Non disponible.
METAR KHUL 301153Z AUTO 22008KT 10SM CLR 13/09 A3020 RMK AO2 SLP230 T01280094 10128 20083 58001

More Conditions Fewer Conditions

Pression 30.21 pouce
Visibilité 10.0 Miles terrestres
Nuages Ciel dégagé
Point de rosée 49 ° F
Humidité 80%
Précipitations 0.00 pouce
Profondeur de la couche neigeuse Non disponible.
UV 2 sur 12
Pollen 6.80 sur 12
Ozone Bon
PM2.5 Bon
Flu Activity Non disponible.
METAR KHUL 301153Z AUTO 22008KT 10SM CLR 13/09 A3020 RMK AO2 SLP230 T01280094 10128 20083 58001

More Conditions Fewer Conditions

10-Day Weather Forecast

Almanac

Astronomie

Aug. 30, 2014 Lever Coucher
Temps réel 05:49 EDT 19:13 EDT
Crépuscule civil 05:18 EDT 19:44 EDT
Crépuscule nautique 04:40 EDT 20:22 EDT
Crépuscule astronomique 03:59 EDT 21:02 EDT
Lune 10:50 EDT 21:26 EDT
Durée de lumière visible 14h 26m
Longueur du jour
13h 24m
Tomorrow will be 3m 7s shorter.
Lune montante, 21% of the Moon is Illuminated
Aujourd'hui
Lune montante
Sep 2
Premier quartier
Sep 8
Pleine lune
Sep 15
Dernier quartier
Sep 24
Nouveau

Extrêmes aujourd'hui

State Highs State Lows

Community

WunderPhotos

Upload Photos

1,748,500 Photos téléchargées !

WunderBlogs® & News

By Dr. Jeff Masters
Director of Meteorology, Weather Underground
By Kari Strenfel
Meteorologist, Weather Underground
By Christopher C. Burt
Weather Historian, Weather Underground
August 30, 2014
August 30, 2014
August 30, 2014

Nearby

Qualité de l'air

  Qualité de l'air Indice de la qualité de l'air Polluant
Hier Bon
PM2.5
Actuel Bon
PM2.5
Actuel Bon
OZONE
samedi Bon
OZONE
samedi Bon
PM2.5
dimanche Bon
OZONE
dimanche Bon
PM2.5
lundi Bon
OZONE
lundi Bon
PM2.5
mardi Bon
OZONE
mardi Bon
PM2.5
mercredi Bon
OZONE
mercredi Bon
PM2.5

Épaisseur de neige

Station Depth Altitude
Pas de nouvelles chutes de neige

Activité sismique

Ville Distance Mag. Time & Date
No recent earthquake activity has been reported nearby.
Minimum magnitude displayed is 2.5.

Températures des eaux côtières

Lieu Température
Aucun rapport de station

Stations météo à proximité